Time;durP1;ratioP1;P1;durP2;ratioP2;P2;SDS_P1;SDS_P2;PMS_P1;PMS_P2;Temp;Humidity;BMP_temperature;BMP_pressure;BME280_temperature;BME280_humidity;BME280_pressure;Samples;Min_cycle;Max_cycle;Signal;HPM_P1;HPM_P2
2022/08/14 00:01:12;;;;;;;;;;;;;;;28.02;75.03;98696.84;5058293;28;19943;-74
2022/08/14 00:03:37;;;;;;;;;;;;;;;27.74;77.42;98693.72;5040507;28;20007;-75
2022/08/14 00:06:03;;;;;;;;;;;;;;;28.46;72.33;98696.38;5023343;28;20492;-74
2022/08/14 00:08:28;;;;;;;;;;;;;;;28.06;74.74;98692.88;5043290;28;19920;-75
2022/08/14 00:10:53;;;;;;;;;;;;;;;27.85;77.53;98685.47;5035159;28;19955;-75
2022/08/14 00:13:19;;;;;;;;;;;;;;;28.38;74.03;98679.72;5035498;28;20043;-75
2022/08/14 00:15:45;;;;;;;;;;;;;;;28.21;76.06;98678.94;5057996;28;19916;-73
2022/08/14 00:18:12;;;;;;;;;;;;;;;28.01;76.72;98681.13;5036547;28;20564;-75
2022/08/14 00:20:39;;;;;;;;;;;;;;;28.05;76.70;98679.81;5056144;28;20020;-74
2022/08/14 00:23:05;;;;;;;;;;;;;;;28.19;76.01;98681.78;5036430;28;19959;-75
2022/08/14 00:25:31;;;;;;;;;;;;;;;28.26;75.02;98677.44;5025009;28;20019;-74
2022/08/14 00:27:56;;;;;;;;;;;;;;;28.80;72.80;98666.13;5035291;28;20002;-75
2022/08/14 00:30:21;;;;;;;;;;;;;;;29.37;70.23;98667.63;5025106;28;19951;-74
2022/08/14 00:32:47;;;;;;;;;;;;;;;28.81;70.71;98659.00;5056156;28;19920;-74
2022/08/14 00:35:12;;;;;;;;;;;;;;;27.97;76.00;98667.41;5037969;28;20057;-74
2022/08/14 00:37:38;;;;;;;;;;;;;;;27.79;78.05;98662.28;5041955;28;19916;-75
2022/08/14 00:40:04;;;;;;;;;;;;;;;28.55;73.97;98652.19;5037023;28;19920;-75
2022/08/14 00:42:30;;;;;;;;;;;;;;;28.32;74.62;98655.56;5035952;28;19999;-75
2022/08/14 00:44:55;;;;;;;;;;;;;;;28.08;76.67;98650.38;5026843;28;19921;-75
2022/08/14 00:47:23;;;;;;;;;;;;;;;27.79;77.55;98649.06;5058245;28;19920;-75
2022/08/14 00:49:49;;;;;;;;;;;;;;;27.63;79.14;98643.78;5027330;28;20603;-75
2022/08/14 00:52:15;;;;;;;;;;;;;;;28.52;75.29;98639.28;5038096;28;19925;-74
2022/08/14 00:54:41;;;;;;;;;;;;;;;28.32;76.55;98646.78;5035511;28;19928;-75
2022/08/14 00:57:06;;;;;;;;;;;;;;;29.16;73.57;98636.44;5036045;28;19920;-75
2022/08/14 00:59:31;;;;;;;;;;;;;;;28.33;77.55;98640.50;5024767;28;19917;-74
2022/08/14 01:01:58;;;;;;;;;;;;;;;28.44;76.13;98636.63;5037535;28;19924;-75
2022/08/14 01:04:23;;;;;;;;;;;;;;;29.53;73.10;98638.28;5038761;28;19921;-75
2022/08/14 01:06:50;;;;;;;;;;;;;;;30.56;66.48;98630.56;5027186;28;19927;-74
2022/08/14 01:09:16;;;;;;;;;;;;;;;30.15;68.30;98634.56;5027863;28;20302;-74
2022/08/14 01:11:41;;;;;;;;;;;;;;;30.19;67.88;98632.34;5039101;28;19956;-74
2022/08/14 01:14:06;;;;;;;;;;;;;;;30.48;65.60;98626.19;5026591;28;19964;-75
2022/08/14 01:16:31;;;;;;;;;;;;;;;30.40;65.48;98629.81;5041770;28;19916;-75
2022/08/14 01:21:41;;;;;;;;;;;;;;;29.70;70.52;98632.88;5059740;28;19931;-75
2022/08/14 01:24:07;;;;;;;;;;;;;;;28.52;73.87;98634.00;5039618;28;19912;-74
2022/08/14 01:26:34;;;;;;;;;;;;;;;29.90;70.26;98634.00;5037425;28;20390;-76
2022/08/14 01:28:59;;;;;;;;;;;;;;;29.55;72.56;98627.50;5054873;28;20364;-75
2022/08/14 01:31:25;;;;;;;;;;;;;;;29.96;68.71;98622.63;5034662;28;19920;-75
2022/08/14 01:33:53;;;;;;;;;;;;;;;30.17;64.51;98613.91;5026022;28;19977;-75
2022/08/14 01:36:19;;;;;;;;;;;;;;;30.44;66.00;98619.59;5032991;28;19912;-75
2022/08/14 01:38:47;;;;;;;;;;;;;;;30.48;63.42;98615.56;5035035;28;19921;-74
2022/08/14 01:41:13;;;;;;;;;;;;;;;30.52;63.23;98616.00;5035641;28;19931;-78
2022/08/14 01:43:44;;;;;;;;;;;;;;;30.26;63.45;98613.84;5031210;28;20047;-79
2022/08/14 01:46:10;;;;;;;;;;;;;;;30.21;67.10;98609.06;5051606;28;19927;-81
2022/08/14 01:48:36;;;;;;;;;;;;;;;30.35;65.92;98608.25;5044231;28;19912;-76
2022/08/14 01:51:01;;;;;;;;;;;;;;;30.25;64.91;98597.06;5070561;28;19916;-76
2022/08/14 01:53:27;;;;;;;;;;;;;;;30.19;66.14;98605.78;5031875;28;19931;-77
2022/08/14 01:55:56;;;;;;;;;;;;;;;30.13;64.39;98594.06;5058880;28;20029;-76
2022/08/14 01:58:22;;;;;;;;;;;;;;;29.50;66.66;98596.19;5041175;28;19990;-75
2022/08/14 02:00:53;;;;;;;;;;;;;;;29.71;66.81;98592.06;5060678;28;20415;-76
2022/08/14 02:03:18;;;;;;;;;;;;;;;30.07;68.39;98591.34;5042031;28;19920;-76
2022/08/14 02:05:43;;;;;;;;;;;;;;;30.24;67.88;98574.16;5038017;28;20400;-75
2022/08/14 02:08:08;;;;;;;;;;;;;;;30.18;66.05;98577.59;5040537;28;19919;-77
2022/08/14 02:10:34;;;;;;;;;;;;;;;29.98;67.28;98575.47;5038219;28;19924;-76
2022/08/14 02:13:04;;;;;;;;;;;;;;;30.05;67.75;98566.78;5057167;28;19925;-76
2022/08/14 02:15:29;;;;;;;;;;;;;;;28.78;72.16;98570.91;5040238;28;19913;-77
2022/08/14 02:17:54;;;;;;;;;;;;;;;28.59;76.25;98554.66;5062155;28;19913;-76
2022/08/14 02:20:20;;;;;;;;;;;;;;;27.21;82.57;98565.47;5042590;28;20284;-75
2022/08/14 02:22:46;;;;;;;;;;;;;;;27.97;81.64;98560.72;5061422;28;19970;-74
2022/08/14 02:25:11;;;;;;;;;;;;;;;28.08;78.58;98558.53;5063268;28;19923;-74
2022/08/14 02:27:36;;;;;;;;;;;;;;;27.95;81.32;98558.25;5063646;28;19924;-74
2022/08/14 02:30:02;;;;;;;;;;;;;;;28.28;81.08;98553.63;5040435;28;20078;-74
2022/08/14 02:32:33;;;;;;;;;;;;;;;28.68;78.17;98554.41;5047555;28;19965;-74
2022/08/14 02:34:59;;;;;;;;;;;;;;;28.23;79.69;98552.50;5043130;28;19919;-74
2022/08/14 02:37:24;;;;;;;;;;;;;;;28.42;79.82;98543.28;5062795;28;19921;-74
2022/08/14 02:39:50;;;;;;;;;;;;;;;28.42;79.24;98544.13;5027022;28;19924;-75
2022/08/14 02:42:17;;;;;;;;;;;;;;;28.10;81.84;98545.09;5060616;28;20271;-74
2022/08/14 02:44:43;;;;;;;;;;;;;;;28.48;78.47;98532.03;5041489;28;19912;-75
2022/08/14 02:47:08;;;;;;;;;;;;;;;29.21;76.43;98528.00;5041730;28;20031;-75
2022/08/14 02:49:34;;;;;;;;;;;;;;;29.36;76.90;98520.09;5039662;28;19959;-75
2022/08/14 02:51:59;;;;;;;;;;;;;;;28.73;79.83;98520.25;5039452;28;20019;-74
2022/08/14 02:54:25;;;;;;;;;;;;;;;28.53;81.64;98514.63;5039144;28;19920;-75
2022/08/14 02:56:52;;;;;;;;;;;;;;;29.13;77.29;98514.84;5040688;28;20344;-75
2022/08/14 02:59:17;;;;;;;;;;;;;;;29.26;76.30;98509.72;5060335;28;19917;-75
2022/08/14 03:01:42;;;;;;;;;;;;;;;29.38;75.44;98504.81;5037836;28;20392;-74
2022/08/14 03:04:09;;;;;;;;;;;;;;;29.40;74.86;98505.47;5040230;28;19923;-74
2022/08/14 03:06:34;;;;;;;;;;;;;;;29.29;75.71;98497.94;5057759;28;19931;-74
2022/08/14 03:09:00;;;;;;;;;;;;;;;29.27;75.73;98492.81;5057602;28;19924;-74
2022/08/14 03:11:25;;;;;;;;;;;;;;;29.14;76.45;98501.38;5041100;28;19988;-75
2022/08/14 03:13:50;;;;;;;;;;;;;;;28.95;78.49;98501.88;5027500;28;19921;-74
2022/08/14 03:16:18;;;;;;;;;;;;;;;28.90;79.21;98494.47;5041214;28;20030;-74
2022/08/14 03:18:43;;;;;;;;;;;;;;;28.15;81.65;98495.13;5038865;28;20390;-74
2022/08/14 03:21:14;;;;;;;;;;;;;;;27.41;86.59;98503.28;5040553;28;19928;-75
2022/08/14 03:23:44;;;;;;;;;;;;;;;28.03;84.81;98499.13;5039513;28;19944;-75
2022/08/14 03:26:10;;;;;;;;;;;;;;;27.46;86.41;98501.00;5039674;28;19919;-74
2022/08/14 03:28:39;;;;;;;;;;;;;;;27.12;85.73;98504.66;5039526;28;19942;-74
2022/08/14 03:31:05;;;;;;;;;;;;;;;28.22;78.57;98493.41;5025007;28;19999;-74
2022/08/14 03:33:30;;;;;;;;;;;;;;;27.98;78.23;98493.53;5043076;28;20333;-75
2022/08/14 03:35:55;;;;;;;;;;;;;;;27.67;81.46;98486.38;5058373;28;19921;-74
2022/08/14 03:38:20;;;;;;;;;;;;;;;27.90;81.01;98489.13;5039567;28;19920;-74
2022/08/14 03:40:46;;;;;;;;;;;;;;;28.61;80.63;98489.06;5058654;28;20011;-74
2022/08/14 03:43:11;;;;;;;;;;;;;;;28.88;79.31;98485.03;5057163;28;20428;-74
2022/08/14 03:45:37;;;;;;;;;;;;;;;27.68;78.61;98480.06;5040247;28;20439;-74
2022/08/14 03:48:03;;;;;;;;;;;;;;;27.93;83.43;98489.59;5039522;28;19924;-75
2022/08/14 03:50:29;;;;;;;;;;;;;;;26.33;88.56;98482.31;5035442;28;20605;-75
2022/08/14 03:52:55;;;;;;;;;;;;;;;26.65;89.36;98470.97;5059636;28;19924;-75
2022/08/14 03:55:20;;;;;;;;;;;;;;;26.09;90.78;98469.88;5026505;28;20412;-75
2022/08/14 03:57:46;;;;;;;;;;;;;;;26.11;91.52;98473.16;5040201;28;19916;-74
2022/08/14 04:00:12;;;;;;;;;;;;;;;26.80;89.55;98472.94;5049927;23;19938;-83
2022/08/14 04:02:38;;;;;;;;;;;;;;;28.03;85.09;98462.06;5060179;28;19927;-84
2022/08/14 04:05:05;;;;;;;;;;;;;;;28.10;84.23;98470.97;5052096;28;20380;-84
2022/08/14 04:07:31;;;;;;;;;;;;;;;28.26;83.33;98472.69;5047871;28;19916;-84
2022/08/14 04:09:56;;;;;;;;;;;;;;;28.29;81.59;98478.47;5051231;28;20380;-83
2022/08/14 04:12:22;;;;;;;;;;;;;;;27.71;82.67;98482.38;5051125;28;19951;-84
2022/08/14 04:14:47;;;;;;;;;;;;;;;28.34;80.85;98481.41;5083055;28;19920;-84
2022/08/14 04:17:12;;;;;;;;;;;;;;;27.81;81.50;98488.31;5065700;28;19923;-84
2022/08/14 04:19:38;;;;;;;;;;;;;;;26.62;85.81;98484.50;5065739;28;19938;-84
2022/08/14 04:22:03;;;;;;;;;;;;;;;27.44;85.99;98479.19;5069519;28;19935;-84
2022/08/14 04:24:29;;;;;;;;;;;;;;;28.26;83.20;98486.78;5067773;28;19926;-84
2022/08/14 04:26:54;;;;;;;;;;;;;;;28.33;83.06;98481.63;5067669;28;20475;-84
2022/08/14 04:29:20;;;;;;;;;;;;;;;28.50;81.83;98482.34;5068417;28;19924;-84
2022/08/14 04:31:45;;;;;;;;;;;;;;;28.48;81.94;98481.69;5057088;28;19920;-84
2022/08/14 04:34:11;;;;;;;;;;;;;;;28.58;81.22;98477.00;5054318;28;19921;-84
2022/08/14 04:43:34;;;;;;;;;;;;;;;28.20;78.28;98471.59;5052200;28;19926;-84
2022/08/14 04:44:49;;;;;;;;;;;;;;;26.94;88.96;98484.66;5077194;28;20300;-84
2022/08/14 04:50:02;;;;;;;;;;;;;;;28.06;83.58;98477.63;5073013;28;19927;-84
2022/08/14 04:52:27;;;;;;;;;;;;;;;28.43;83.20;98481.38;5072409;28;20065;-87
2022/08/14 04:54:52;;;;;;;;;;;;;;;28.57;82.92;98481.44;5052588;28;20002;-87
2022/08/14 04:57:18;;;;;;;;;;;;;;;27.76;78.79;98474.75;5055128;28;20292;-86
2022/08/14 04:59:43;;;;;;;;;;;;;;;27.46;81.71;98469.25;5053397;28;20388;-86
2022/08/14 05:02:09;;;;;;;;;;;;;;;28.36;84.32;98481.25;5053994;28;20642;-86
2022/08/14 05:04:34;;;;;;;;;;;;;;;28.33;76.77;98479.78;5056343;28;19977;-84
2022/08/14 05:06:59;;;;;;;;;;;;;;;28.26;81.19;98480.63;5063903;28;19993;-85
2022/08/14 05:09:25;;;;;;;;;;;;;;;28.85;82.38;98482.72;5074045;28;19919;-86
2022/08/14 05:11:50;;;;;;;;;;;;;;;28.97;82.48;98490.09;5050410;28;19927;-86
2022/08/14 05:14:17;;;;;;;;;;;;;;;28.90;78.70;98483.03;5049172;28;19923;-86
2022/08/14 05:16:43;;;;;;;;;;;;;;;28.85;80.76;98486.22;5066982;28;20315;-85
2022/08/14 05:19:12;;;;;;;;;;;;;;;29.12;83.39;98478.69;5054639;28;20171;-85
2022/08/14 05:21:38;;;;;;;;;;;;;;;29.27;80.13;98478.72;5054717;28;20083;-85
2022/08/14 05:24:04;;;;;;;;;;;;;;;28.77;80.01;98479.16;5055263;28;19916;-84
2022/08/14 05:26:29;;;;;;;;;;;;;;;28.97;80.11;98482.13;5055947;28;19955;-84
2022/08/14 05:28:54;;;;;;;;;;;;;;;28.99;78.07;98471.34;5071224;28;19920;-85
2022/08/14 05:31:20;;;;;;;;;;;;;;;28.77;80.32;98480.97;5053434;28;19927;-85
2022/08/14 05:33:45;;;;;;;;;;;;;;;28.08;84.32;98481.75;5091870;28;19916;-85
2022/08/14 05:36:11;;;;;;;;;;;;;;;29.25;85.07;98480.75;5053322;28;19934;-85
2022/08/14 05:38:38;;;;;;;;;;;;;;;29.45;77.57;98471.25;5052917;28;19927;-88
2022/08/14 05:41:08;;;;;;;;;;;;;;;29.52;83.62;98472.16;5054806;28;19927;-86
2022/08/14 05:43:33;;;;;;;;;;;;;;;29.13;80.44;98473.22;5044288;28;19920;-86
2022/08/14 05:45:59;;;;;;;;;;;;;;;29.36;79.45;98467.03;5088306;28;19919;-86
2022/08/14 05:48:24;;;;;;;;;;;;;;;28.39;84.13;98477.41;5054899;28;20319;-87
2022/08/14 05:50:50;;;;;;;;;;;;;;;29.39;80.92;98471.97;5073403;28;19924;-85
2022/08/14 05:53:16;;;;;;;;;;;;;;;28.97;81.91;98479.47;5054498;28;20311;-86
2022/08/14 05:55:41;;;;;;;;;;;;;;;28.36;87.81;98482.06;5070634;28;20010;-86
2022/08/14 05:58:07;;;;;;;;;;;;;;;27.68;89.65;98477.44;5068357;28;19921;-86
2022/08/14 06:00:35;;;;;;;;;;;;;;;29.24;81.52;98473.78;5071697;27;19991;-86
2022/08/14 06:03:01;;;;;;;;;;;;;;;29.90;76.93;98469.41;5077666;27;20432;-84
2022/08/14 06:05:26;;;;;;;;;;;;;;;30.76;79.04;98465.97;5069792;27;19920;-85
2022/08/14 06:07:52;;;;;;;;;;;;;;;30.02;77.91;98459.94;5089834;27;19915;-85
2022/08/14 06:10:17;;;;;;;;;;;;;;;30.25;75.35;98452.81;5073266;27;19919;-85
2022/08/14 06:12:42;;;;;;;;;;;;;;;30.80;79.18;98454.78;5088487;27;19920;-84
2022/08/14 06:15:08;;;;;;;;;;;;;;;30.34;74.61;98449.06;5090503;27;20017;-84
2022/08/14 06:17:47;;;;;;;;;;;;;;;30.67;76.55;98448.53;5092273;27;20243;-84
2022/08/14 06:20:13;;;;;;;;;;;;;;;31.36;68.26;98445.13;5070208;27;19919;-84
2022/08/14 06:22:39;;;;;;;;;;;;;;;31.17;71.73;98447.50;5072989;27;20534;-84
2022/08/14 06:25:04;;;;;;;;;;;;;;;30.48;79.39;98455.31;5091530;27;19920;-84
2022/08/14 06:27:41;;;;;;;;;;;;;;;29.13;78.30;98448.53;5072243;27;19915;-85
2022/08/14 06:30:07;;;;;;;;;;;;;;;29.39;80.23;98440.13;5091392;27;19926;-85
2022/08/14 06:32:32;;;;;;;;;;;;;;;29.40;83.90;98441.78;5088531;27;19934;-84
2022/08/14 06:34:57;;;;;;;;;;;;;;;30.19;78.11;98439.25;5090770;27;20579;-84
2022/08/14 06:37:23;;;;;;;;;;;;;;;30.09;81.18;98449.38;5069821;27;19915;-84
2022/08/14 06:39:48;;;;;;;;;;;;;;;30.70;77.84;98448.97;5086180;27;19920;-84
2022/08/14 06:42:13;;;;;;;;;;;;;;;30.83;78.49;98449.06;5068316;27;20292;-84
2022/08/14 06:44:39;;;;;;;;;;;;;;;29.45;83.39;98450.00;5089362;27;20047;-84
2022/08/14 06:47:05;;;;;;;;;;;;;;;30.97;80.08;98451.84;5070847;27;19923;-84
2022/08/14 06:49:31;;;;;;;;;;;;;;;31.23;74.23;98444.06;5069714;27;19919;-84
2022/08/14 06:51:56;;;;;;;;;;;;;;;30.29;80.99;98446.13;5090067;28;20002;-84
2022/08/14 06:54:21;;;;;;;;;;;;;;;29.22;83.63;98450.09;5088281;27;20029;-84
2022/08/14 06:56:46;;;;;;;;;;;;;;;31.13;75.76;98443.56;5087989;27;20009;-85
2022/08/14 06:59:17;;;;;;;;;;;;;;;31.30;76.60;98441.44;5072406;27;19923;-86
2022/08/14 07:07:15;;;;;;;;;;;;;;;30.94;73.18;98458.38;5050408;27;20191;-86
2022/08/14 07:09:40;;;;;;;;;;;;;;;32.62;69.64;98448.28;5069520;28;19972;-85
2022/08/14 07:12:05;;;;;;;;;;;;;;;33.31;63.97;98452.34;5108067;27;20341;-84
2022/08/14 07:14:31;;;;;;;;;;;;;;;33.01;67.13;98448.47;5088334;27;21147;-86
2022/08/14 07:16:56;;;;;;;;;;;;;;;32.82;67.28;98452.78;5095710;27;19930;-86
2022/08/14 07:19:22;;;;;;;;;;;;;;;32.89;67.79;98443.75;5074263;27;19990;-84
2022/08/14 07:21:48;;;;;;;;;;;;;;;33.37;67.37;98441.84;5088814;27;19915;-84
2022/08/14 07:24:13;;;;;;;;;;;;;;;34.00;64.66;98434.00;5071272;27;19946;-84
2022/08/14 07:26:39;;;;;;;;;;;;;;;33.25;56.52;98439.00;5074072;27;19911;-85
2022/08/14 07:29:04;;;;;;;;;;;;;;;32.99;65.67;98439.84;5073674;27;19916;-85
2022/08/14 07:31:32;;;;;;;;;;;;;;;33.11;66.79;98439.03;5089513;27;20407;-86
2022/08/14 07:33:57;;;;;;;;;;;;;;;33.97;60.64;98423.75;5072863;28;20372;-86
2022/08/14 07:36:22;;;;;;;;;;;;;;;34.69;59.60;98426.19;5108324;27;19923;-86
2022/08/14 07:38:48;;;;;;;;;;;;;;;34.42;57.40;98421.03;5073141;27;19938;-86
2022/08/14 07:41:13;;;;;;;;;;;;;;;31.21;64.57;98424.00;5072073;27;19919;-86
2022/08/14 07:43:39;;;;;;;;;;;;;;;32.44;66.27;98424.88;5089606;27;19922;-87
2022/08/14 07:46:05;;;;;;;;;;;;;;;34.04;58.37;98413.03;5090446;27;20536;-86
2022/08/14 07:48:30;;;;;;;;;;;;;;;33.89;58.68;98415.97;5082161;27;20705;-86
2022/08/14 07:50:55;;;;;;;;;;;;;;;34.19;55.77;98415.41;5069118;27;19921;-86
2022/08/14 07:53:21;;;;;;;;;;;;;;;33.67;56.27;98413.63;5071633;27;19915;-85
2022/08/14 07:55:47;;;;;;;;;;;;;;;33.20;60.48;98410.28;5087481;27;19927;-86
2022/08/14 07:58:12;;;;;;;;;;;;;;;34.01;56.58;98408.94;5072375;27;19926;-86
2022/08/14 08:00:38;;;;;;;;;;;;;;;35.10;50.52;98408.69;5073530;28;20365;-86
2022/08/14 08:03:04;;;;;;;;;;;;;;;32.84;56.39;98414.19;5057010;28;19920;-86
2022/08/14 08:05:29;;;;;;;;;;;;;;;33.86;59.23;98397.72;5071322;28;19931;-86
2022/08/14 08:07:54;;;;;;;;;;;;;;;33.41;59.70;98405.69;5072071;28;20079;-86
2022/08/14 08:10:30;;;;;;;;;;;;;;;35.16;52.36;98399.81;5037813;28;19921;-86
2022/08/14 08:13:14;;;;;;;;;;;;;;;35.13;52.73;98400.28;5073409;28;19916;-86
2022/08/14 08:15:41;;;;;;;;;;;;;;;34.15;56.81;98399.81;5053965;28;19940;-86
2022/08/14 08:18:08;;;;;;;;;;;;;;;34.02;58.34;98394.53;5039923;28;19919;-86
2022/08/14 08:20:35;;;;;;;;;;;;;;;34.91;59.10;98394.50;5046702;28;20419;-87
2022/08/14 08:23:01;;;;;;;;;;;;;;;35.04;56.11;98390.88;5056786;28;19920;-86
2022/08/14 08:25:27;;;;;;;;;;;;;;;36.50;48.34;98388.97;5073296;28;20311;-86
2022/08/14 08:28:03;;;;;;;;;;;;;;;36.13;49.34;98391.00;5039709;28;19924;-86
2022/08/14 08:30:29;;;;;;;;;;;;;;;33.64;53.62;98379.34;5055798;28;20324;-86
2022/08/14 08:32:55;;;;;;;;;;;;;;;35.78;49.28;98368.38;5072946;28;20383;-86
2022/08/14 08:35:25;;;;;;;;;;;;;;;36.71;46.12;98365.31;5060966;28;19923;-88
2022/08/14 08:37:51;;;;;;;;;;;;;;;36.50;45.24;98358.66;5049083;28;20412;-88
2022/08/14 08:40:22;;;;;;;;;;;;;;;34.73;49.80;98358.66;5054520;28;20198;-86
2022/08/14 08:42:48;;;;;;;;;;;;;;;35.65;48.50;98355.19;5070083;28;19920;-85
2022/08/14 08:45:14;;;;;;;;;;;;;;;37.32;44.08;98347.84;5042241;28;19976;-85
2022/08/14 08:47:43;;;;;;;;;;;;;;;34.40;48.38;98350.09;5074792;28;19920;-87
2022/08/14 08:50:18;;;;;;;;;;;;;;;34.65;51.48;98356.28;5073962;28;20346;-87
2022/08/14 08:52:48;;;;;;;;;;;;;;;35.37;48.55;98358.38;5060395;28;19931;-87
2022/08/14 08:55:13;;;;;;;;;;;;;;;36.39;44.76;98355.72;5099259;28;19969;-87
2022/08/14 08:57:39;;;;;;;;;;;;;;;35.76;46.05;98350.88;5052877;28;20447;-86
2022/08/14 09:00:14;;;;;;;;;;;;;;;36.68;45.86;98344.31;5038315;28;20402;-86
2022/08/14 09:03:14;;;;;;;;;;;;;;;35.91;44.08;98342.44;5092367;28;19927;-85
2022/08/14 09:05:50;;;;;;;;;;;;;;;33.93;50.40;98342.41;5048316;28;19920;-86
2022/08/14 09:08:19;;;;;;;;;;;;;;;35.50;47.01;98346.69;5094399;28;20408;-86
2022/08/14 09:10:45;;;;;;;;;;;;;;;35.83;46.19;98350.78;5094094;28;19999;-87
2022/08/14 09:13:11;;;;;;;;;;;;;;;37.39;40.92;98343.16;5068752;28;19923;-85
2022/08/14 09:15:44;;;;;;;;;;;;;;;34.88;45.99;98344.94;5076446;28;20326;-85
2022/08/14 09:18:09;;;;;;;;;;;;;;;34.08;52.11;98353.59;5094462;28;20325;-85
2022/08/14 09:20:36;;;;;;;;;;;;;;;35.11;49.38;98344.28;5095219;28;19916;-85
2022/08/14 09:23:04;;;;;;;;;;;;;;;35.81;45.63;98337.66;5079106;27;20319;-86
2022/08/14 09:25:29;;;;;;;;;;;;;;;33.90;49.77;98351.66;5067035;28;20286;-88
2022/08/14 09:27:54;;;;;;;;;;;;;;;34.83;46.91;98347.47;5080689;28;20019;-85
2022/08/14 09:30:19;;;;;;;;;;;;;;;36.31;44.00;98342.66;5072673;28;19972;-85
2022/08/14 09:32:52;;;;;;;;;;;;;;;35.50;45.02;98338.66;5059062;28;20312;-85
2022/08/14 09:35:27;;;;;;;;;;;;;;;36.14;45.75;98337.16;5065046;27;19924;-85
2022/08/14 09:37:59;;;;;;;;;;;;;;;38.36;38.48;98324.44;5095688;28;20040;-85
2022/08/14 09:40:31;;;;;;;;;;;;;;;38.32;38.59;98329.50;5099661;27;19920;-85
2022/08/14 09:42:59;;;;;;;;;;;;;;;36.51;42.58;98331.56;5080688;28;19915;-85
2022/08/14 09:45:31;;;;;;;;;;;;;;;35.37;45.57;98318.22;5081766;27;19928;-85
2022/08/14 09:47:56;;;;;;;;;;;;;;;36.98;42.91;98315.47;5088023;27;19951;-85
2022/08/14 09:50:31;;;;;;;;;;;;;;;38.75;39.86;98319.09;5083631;28;19970;-85
2022/08/14 09:53:03;;;;;;;;;;;;;;;39.17;36.71;98314.00;5101368;28;19954;-85
2022/08/14 09:55:32;;;;;;;;;;;;;;;38.44;37.68;98318.63;5066925;28;20145;-85
2022/08/14 09:58:14;;;;;;;;;;;;;;;37.59;38.14;98315.06;5084796;28;20438;-85
2022/08/14 10:00:44;;;;;;;;;;;;;;;35.54;43.71;98315.75;5084746;27;20722;-85
2022/08/14 10:03:10;;;;;;;;;;;;;;;35.08;44.40;98309.09;5073730;27;19920;-86
2022/08/14 10:05:35;;;;;;;;;;;;;;;37.33;40.69;98305.69;5072004;27;19930;-86
2022/08/14 10:08:02;;;;;;;;;;;;;;;38.59;38.49;98297.34;5076725;28;19931;-86
2022/08/14 10:10:28;;;;;;;;;;;;;;;38.34;37.34;98286.19;5067686;27;19958;-85
2022/08/14 10:12:54;;;;;;;;;;;;;;;38.52;39.05;98291.31;5080621;28;19943;-86
2022/08/14 10:15:20;;;;;;;;;;;;;;;35.55;42.96;98296.75;5059643;28;20388;-86
2022/08/14 10:17:47;;;;;;;;;;;;;;;37.24;40.82;98289.16;5059470;27;19919;-86
2022/08/14 10:20:14;;;;;;;;;;;;;;;37.56;39.49;98283.31;5075168;27;19916;-85
2022/08/14 10:22:41;;;;;;;;;;;;;;;38.90;37.26;98290.47;5062821;27;21610;-86
2022/08/14 10:25:13;;;;;;;;;;;;;;;39.85;35.88;98289.41;5075599;27;19919;-87
2022/08/14 10:27:38;;;;;;;;;;;;;;;38.81;35.74;98283.09;5087693;27;20353;-87
2022/08/14 10:30:15;;;;;;;;;;;;;;;37.46;37.15;98274.00;5069994;27;19930;-88
2022/08/14 10:32:47;;;;;;;;;;;;;;;38.80;36.65;98284.16;5076309;28;20464;-87
2022/08/14 10:35:12;;;;;;;;;;;;;;;39.07;36.53;98276.16;5070774;27;19916;-88
2022/08/14 10:37:59;;;;;;;;;;;;;;;39.22;35.15;98272.84;5089181;27;20332;-87
2022/08/14 10:40:26;;;;;;;;;;;;;;;39.09;36.62;98263.25;5072997;27;19919;-87
2022/08/14 10:42:51;;;;;;;;;;;;;;;37.26;37.89;98261.00;5085288;28;19919;-87
2022/08/14 10:45:21;;;;;;;;;;;;;;;39.13;36.82;98252.81;5088550;27;20057;-87
2022/08/14 10:47:51;;;;;;;;;;;;;;;40.43;34.71;98249.06;5092021;27;19970;-85
2022/08/14 10:50:17;;;;;;;;;;;;;;;40.85;33.12;98242.78;5090643;27;19916;-84
2022/08/14 10:52:42;;;;;;;;;;;;;;;38.38;35.52;98239.72;5072480;27;19919;-84
2022/08/14 10:55:12;;;;;;;;;;;;;;;40.53;32.84;98236.47;5071408;27;19927;-84
2022/08/14 10:57:54;;;;;;;;;;;;;;;37.83;36.25;98230.56;5075606;27;19993;-84
2022/08/14 11:00:20;;;;;;;;;;;;;;;38.94;36.26;98228.91;5076220;28;20304;-84
2022/08/14 11:02:54;;;;;;;;;;;;;;;38.99;36.08;98231.66;5035112;28;20280;-85
2022/08/14 11:05:22;;;;;;;;;;;;;;;38.42;36.37;98232.00;5047913;28;19927;-85
2022/08/14 11:07:55;;;;;;;;;;;;;;;38.99;37.07;98226.28;5057272;28;19927;-85
2022/08/14 11:10:24;;;;;;;;;;;;;;;39.52;35.64;98224.66;5044919;28;19923;-85
2022/08/14 11:12:50;;;;;;;;;;;;;;;38.56;38.05;98222.50;5055360;28;19924;-85
2022/08/14 11:15:16;;;;;;;;;;;;;;;37.13;39.44;98221.00;5064446;28;20003;-88
2022/08/14 11:17:46;;;;;;;;;;;;;;;38.54;36.42;98219.25;5045608;28;20681;-91
2022/08/14 11:20:11;;;;;;;;;;;;;;;38.31;38.00;98225.66;5046047;28;20066;-89
2022/08/14 11:22:40;;;;;;;;;;;;;;;38.92;36.31;98217.56;5059479;28;21030;-90
2022/08/14 11:25:05;;;;;;;;;;;;;;;38.00;35.90;98216.28;5058888;28;19924;-85
2022/08/14 11:27:31;;;;;;;;;;;;;;;38.85;35.96;98203.47;5042725;28;19916;-86
2022/08/14 11:30:00;;;;;;;;;;;;;;;37.70;36.13;98212.06;5047624;28;19916;-86
2022/08/14 11:32:26;;;;;;;;;;;;;;;38.85;35.99;98203.47;5041942;28;19941;-86
2022/08/14 11:34:52;;;;;;;;;;;;;;;38.72;35.86;98207.38;5060142;28;19922;-86
2022/08/14 11:37:17;;;;;;;;;;;;;;;39.99;34.03;98207.00;5050538;28;19920;-87
2022/08/14 11:39:50;;;;;;;;;;;;;;;39.80;34.34;98198.44;5042411;28;19963;-87
2022/08/14 11:42:23;;;;;;;;;;;;;;;39.27;34.13;98194.78;5054907;28;20408;-86
2022/08/14 11:44:49;;;;;;;;;;;;;;;40.40;32.62;98193.75;5065267;28;19928;-85
2022/08/14 11:47:18;;;;;;;;;;;;;;;39.20;34.23;98188.78;5061000;28;19946;-85
2022/08/14 11:49:44;;;;;;;;;;;;;;;39.84;33.55;98194.19;5059247;28;19923;-85
2022/08/14 11:52:11;;;;;;;;;;;;;;;36.74;38.18;98187.75;5056528;28;19916;-87
2022/08/14 11:54:36;;;;;;;;;;;;;;;36.55;39.12;98182.53;5057030;28;20019;-87
2022/08/14 11:57:04;;;;;;;;;;;;;;;36.42;38.49;98177.44;5039379;28;19916;-86
2022/08/14 11:59:31;;;;;;;;;;;;;;;38.54;35.73;98180.78;5042843;28;19916;-87
2022/08/14 12:02:06;;;;;;;;;;;;;;;39.96;34.68;98179.72;5081442;27;20312;-87
2022/08/14 12:04:33;;;;;;;;;;;;;;;40.71;32.75;98172.28;5085562;27;19965;-86
2022/08/14 12:06:59;;;;;;;;;;;;;;;38.78;34.14;98178.66;5103971;27;19926;-87
2022/08/14 12:09:31;;;;;;;;;;;;;;;38.55;36.02;98177.84;5087759;27;19915;-87
2022/08/14 12:12:22;;;;;;;;;;;;;;;38.75;35.02;98177.25;5090290;28;20611;-86
2022/08/14 12:14:55;;;;;;;;;;;;;;;40.16;34.48;98169.03;5066365;28;20699;-86
2022/08/14 12:17:20;;;;;;;;;;;;;;;39.54;32.68;98167.81;5105725;28;20014;-87
2022/08/14 12:19:47;;;;;;;;;;;;;;;40.07;33.07;98167.91;5068680;28;20018;-87
2022/08/14 12:22:12;;;;;;;;;;;;;;;39.58;34.00;98173.53;5104043;27;20002;-87
2022/08/14 12:24:37;;;;;;;;;;;;;;;40.28;32.16;98155.38;5072965;28;20009;-88
2022/08/14 12:27:03;;;;;;;;;;;;;;;40.71;32.39;98164.19;5071050;28;20143;-88
2022/08/14 12:29:28;;;;;;;;;;;;;;;40.50;30.60;98158.69;5083818;28;19942;-87
2022/08/14 12:31:57;;;;;;;;;;;;;;;39.59;33.00;98164.34;5086275;28;19959;-87
2022/08/14 12:34:28;;;;;;;;;;;;;;;40.68;33.12;98154.72;5071747;28;19923;-87
2022/08/14 12:37:02;;;;;;;;;;;;;;;40.33;30.91;98153.53;5083937;28;20001;-87
2022/08/14 12:39:27;;;;;;;;;;;;;;;38.70;33.71;98156.47;5079516;28;19926;-87
2022/08/14 12:41:55;;;;;;;;;;;;;;;37.87;34.42;98156.44;5071360;27;20078;-87
2022/08/14 12:44:34;;;;;;;;;;;;;;;37.43;35.24;98145.56;5068882;28;19920;-88
2022/08/14 12:47:11;;;;;;;;;;;;;;;37.55;35.68;98150.06;5072909;28;19919;-87
2022/08/14 12:49:36;;;;;;;;;;;;;;;36.78;35.84;98138.75;5087554;28;19920;-87
2022/08/14 12:52:02;;;;;;;;;;;;;;;36.70;36.45;98143.69;5084592;28;19920;-86
2022/08/14 12:54:28;;;;;;;;;;;;;;;37.16;36.08;98123.09;5070715;28;19947;-85
2022/08/14 12:57:04;;;;;;;;;;;;;;;36.25;37.00;98128.28;5070450;27;19920;-86
2022/08/14 12:59:32;;;;;;;;;;;;;;;36.59;36.89;98114.00;5072590;27;19920;-88
2022/08/14 13:01:57;;;;;;;;;;;;;;;37.14;36.32;98117.13;5078721;27;19919;-86
2022/08/14 13:04:22;;;;;;;;;;;;;;;38.01;36.30;98115.81;5077221;27;21119;-86